Alona — 9HWM9 — position and weather

sailwx.info

Track history (hours):
 
Tides and Currents Weather Stations Pressure Air Temp Water Temp Dewpoint Dewpoint Depression Visibility Wind Speed Wind Dir Waves Ship Positions

Alona

Last reported at 2017-Dec-02 03:30 UTC. Time now 2017-Dec-12 14:13 UTC.
Position N 43°41' E 029°32'.
Warning: this ship's position is 10 days out of date.

Length 292 m; draft 18.5 m.

Type: Cargo ship. MMSI: 249634000.

Date/timePositionNaut miles runAvg speedWind from/ knotsBaromVisibWave heightAir tempDewpointWater temp
2017-Dec-02 03:30N 43°41' E 029°32'3010.6
2017-Dec-02 00:38N 44°08' E 029°51'210.8
2017-Dec-02 00:30N 44°09' E 029°52'510.7
2017-Dec-02 00:00N 44°14' E 029°55'610.6
2017-Dec-01 23:27N 44°19' E 029°59'12310.8
2017-Dec-01 12:00N 46°16' E 030°54'811.8
2017-Dec-01 11:20N 46°24' E 030°55'7 9.4
2017-Dec-01 10:33N 46°31' E 030°55'0 6.7
2017-Dec-01 10:30N 46°32' E 030°55'  
Track history (hours):
 
Tides and Currents Weather Stations Pressure Air Temp Water Temp Dewpoint Dewpoint Depression Visibility Wind Speed Wind Dir Waves Ship Positions

Alona

Last reported at 2017-Dec-02 03:30 UTC. Time now 2017-Dec-12 14:13 UTC.
Position N 43°41' E 029°32'.
Warning: this ship's position is 10 days out of date.

Length 292 m; draft 18.5 m.

Type: Cargo ship. MMSI: 249634000.

Date/timePositionNaut miles runAvg speedWind from/ knotsBaromVisibWave heightAir tempDewpointWater temp
2017-Dec-02 03:30N 43°41' E 029°32'3010.6
2017-Dec-02 00:38N 44°08' E 029°51'210.8
2017-Dec-02 00:30N 44°09' E 029°52'510.7
2017-Dec-02 00:00N 44°14' E 029°55'610.6
2017-Dec-01 23:27N 44°19' E 029°59'12310.8
2017-Dec-01 12:00N 46°16' E 030°54'811.8
2017-Dec-01 11:20N 46°24' E 030°55'7 9.4
2017-Dec-01 10:33N 46°31' E 030°55'0 6.7
2017-Dec-01 10:30N 46°32' E 030°55'  

Dump ship's entire track history